sensor_id;sensor_type;location;lat;lon;timestamp;P1;durP1;ratioP1;P2;durP2;ratioP2
17812;SDS011;9030;50.792;8.320;2023-10-31T00:00:32;3.85;;;1.42;;
17812;SDS011;9030;50.792;8.320;2023-10-31T00:02:59;2.78;;;1.48;;
17812;SDS011;9030;50.792;8.320;2023-10-31T00:05:27;4.10;;;1.33;;
17812;SDS011;9030;50.792;8.320;2023-10-31T00:07:53;1.50;;;0.90;;
17812;SDS011;9030;50.792;8.320;2023-10-31T00:10:20;2.20;;;0.90;;
17812;SDS011;9030;50.792;8.320;2023-10-31T00:12:47;5.90;;;1.13;;
17812;SDS011;9030;50.792;8.320;2023-10-31T00:15:14;3.85;;;1.38;;
17812;SDS011;9030;50.792;8.320;2023-10-31T00:17:40;2.10;;;0.90;;
17812;SDS011;9030;50.792;8.320;2023-10-31T00:20:07;2.35;;;1.20;;
17812;SDS011;9030;50.792;8.320;2023-10-31T00:22:35;1.30;;;0.75;;
17812;SDS011;9030;50.792;8.320;2023-10-31T00:25:02;2.03;;;0.90;;
17812;SDS011;9030;50.792;8.320;2023-10-31T00:27:29;3.70;;;0.50;;
17812;SDS011;9030;50.792;8.320;2023-10-31T00:29:56;2.60;;;1.23;;
17812;SDS011;9030;50.792;8.320;2023-10-31T00:32:22;3.40;;;1.00;;
17812;SDS011;9030;50.792;8.320;2023-10-31T00:34:50;1.63;;;0.70;;
17812;SDS011;9030;50.792;8.320;2023-10-31T00:37:17;2.20;;;0.80;;
17812;SDS011;9030;50.792;8.320;2023-10-31T00:39:45;2.60;;;0.60;;
17812;SDS011;9030;50.792;8.320;2023-10-31T00:42:12;1.90;;;0.60;;
17812;SDS011;9030;50.792;8.320;2023-10-31T00:44:39;0.50;;;0.50;;
17812;SDS011;9030;50.792;8.320;2023-10-31T00:47:06;0.93;;;0.37;;
17812;SDS011;9030;50.792;8.320;2023-10-31T00:49:32;1.17;;;0.30;;
17812;SDS011;9030;50.792;8.320;2023-10-31T00:51:59;1.43;;;0.70;;
17812;SDS011;9030;50.792;8.320;2023-10-31T00:54:26;1.30;;;0.50;;
17812;SDS011;9030;50.792;8.320;2023-10-31T00:56:54;1.70;;;0.53;;
17812;SDS011;9030;50.792;8.320;2023-10-31T00:59:20;1.57;;;0.77;;
17812;SDS011;9030;50.792;8.320;2023-10-31T01:01:47;2.10;;;0.60;;
17812;SDS011;9030;50.792;8.320;2023-10-31T01:04:14;7.73;;;0.67;;
17812;SDS011;9030;50.792;8.320;2023-10-31T01:06:41;1.70;;;0.40;;
17812;SDS011;9030;50.792;8.320;2023-10-31T01:09:08;0.50;;;0.30;;
17812;SDS011;9030;50.792;8.320;2023-10-31T01:11:35;1.57;;;0.73;;
17812;SDS011;9030;50.792;8.320;2023-10-31T01:14:03;2.10;;;0.57;;
17812;SDS011;9030;50.792;8.320;2023-10-31T01:16:29;1.00;;;0.60;;
17812;SDS011;9030;50.792;8.320;2023-10-31T01:18:56;1.33;;;0.60;;
17812;SDS011;9030;50.792;8.320;2023-10-31T01:21:23;0.87;;;0.80;;
17812;SDS011;9030;50.792;8.320;2023-10-31T01:23:50;0.93;;;0.70;;
17812;SDS011;9030;50.792;8.320;2023-10-31T01:26:16;1.93;;;0.80;;
17812;SDS011;9030;50.792;8.320;2023-10-31T01:28:43;1.83;;;0.80;;
17812;SDS011;9030;50.792;8.320;2023-10-31T01:31:11;1.27;;;0.63;;
17812;SDS011;9030;50.792;8.320;2023-10-31T01:33:38;2.93;;;0.80;;
17812;SDS011;9030;50.792;8.320;2023-10-31T01:36:05;1.40;;;0.67;;
17812;SDS011;9030;50.792;8.320;2023-10-31T01:38:32;1.50;;;0.80;;
17812;SDS011;9030;50.792;8.320;2023-10-31T01:40:59;2.60;;;1.23;;
17812;SDS011;9030;50.792;8.320;2023-10-31T01:43:29;1.27;;;0.77;;
17812;SDS011;9030;50.792;8.320;2023-10-31T01:45:56;2.13;;;0.70;;
17812;SDS011;9030;50.792;8.320;2023-10-31T01:48:24;2.23;;;0.80;;
17812;SDS011;9030;50.792;8.320;2023-10-31T01:50:53;0.70;;;0.40;;
17812;SDS011;9030;50.792;8.320;2023-10-31T01:53:19;2.97;;;0.67;;
17812;SDS011;9030;50.792;8.320;2023-10-31T01:55:46;1.20;;;0.70;;
17812;SDS011;9030;50.792;8.320;2023-10-31T01:58:13;1.70;;;0.73;;
17812;SDS011;9030;50.792;8.320;2023-10-31T02:00:40;1.77;;;0.70;;
17812;SDS011;9030;50.792;8.320;2023-10-31T02:03:08;1.83;;;0.80;;
17812;SDS011;9030;50.792;8.320;2023-10-31T02:05:36;4.00;;;0.50;;
17812;SDS011;9030;50.792;8.320;2023-10-31T02:08:02;0.90;;;0.60;;
17812;SDS011;9030;50.792;8.320;2023-10-31T02:10:30;1.20;;;0.70;;
17812;SDS011;9030;50.792;8.320;2023-10-31T02:12:57;2.37;;;0.70;;
17812;SDS011;9030;50.792;8.320;2023-10-31T02:15:24;0.70;;;0.63;;
17812;SDS011;9030;50.792;8.320;2023-10-31T02:17:51;4.37;;;0.87;;
17812;SDS011;9030;50.792;8.320;2023-10-31T02:20:17;1.00;;;0.60;;
17812;SDS011;9030;50.792;8.320;2023-10-31T02:22:45;1.13;;;0.60;;
17812;SDS011;9030;50.792;8.320;2023-10-31T02:25:16;1.40;;;0.57;;
17812;SDS011;9030;50.792;8.320;2023-10-31T02:27:43;1.13;;;0.50;;
17812;SDS011;9030;50.792;8.320;2023-10-31T02:30:10;1.40;;;0.47;;
17812;SDS011;9030;50.792;8.320;2023-10-31T02:32:38;1.87;;;0.60;;
17812;SDS011;9030;50.792;8.320;2023-10-31T02:35:05;2.13;;;0.33;;
17812;SDS011;9030;50.792;8.320;2023-10-31T02:37:33;1.00;;;0.60;;
17812;SDS011;9030;50.792;8.320;2023-10-31T02:40:02;2.67;;;0.83;;
17812;SDS011;9030;50.792;8.320;2023-10-31T02:42:29;0.93;;;0.70;;
17812;SDS011;9030;50.792;8.320;2023-10-31T02:44:56;1.53;;;0.63;;
17812;SDS011;9030;50.792;8.320;2023-10-31T02:47:23;2.70;;;0.67;;
17812;SDS011;9030;50.792;8.320;2023-10-31T02:49:49;2.03;;;0.80;;
17812;SDS011;9030;50.792;8.320;2023-10-31T02:52:16;1.40;;;0.70;;
17812;SDS011;9030;50.792;8.320;2023-10-31T02:54:43;0.40;;;0.40;;
17812;SDS011;9030;50.792;8.320;2023-10-31T02:57:11;1.47;;;0.53;;
17812;SDS011;9030;50.792;8.320;2023-10-31T02:59:37;0.93;;;0.60;;
17812;SDS011;9030;50.792;8.320;2023-10-31T03:02:04;2.40;;;0.93;;
17812;SDS011;9030;50.792;8.320;2023-10-31T03:04:31;3.13;;;1.07;;
17812;SDS011;9030;50.792;8.320;2023-10-31T03:06:57;3.40;;;1.10;;
17812;SDS011;9030;50.792;8.320;2023-10-31T03:09:24;4.97;;;0.77;;
17812;SDS011;9030;50.792;8.320;2023-10-31T03:11:50;3.73;;;0.90;;
17812;SDS011;9030;50.792;8.320;2023-10-31T03:14:18;6.23;;;1.17;;
17812;SDS011;9030;50.792;8.320;2023-10-31T03:16:45;5.03;;;1.20;;
17812;SDS011;9030;50.792;8.320;2023-10-31T03:19:12;4.07;;;1.67;;
17812;SDS011;9030;50.792;8.320;2023-10-31T03:21:38;8.80;;;1.60;;
17812;SDS011;9030;50.792;8.320;2023-10-31T03:24:05;9.13;;;1.77;;
17812;SDS011;9030;50.792;8.320;2023-10-31T03:26:32;2.10;;;0.93;;
17812;SDS011;9030;50.792;8.320;2023-10-31T03:28:59;4.90;;;1.00;;
17812;SDS011;9030;50.792;8.320;2023-10-31T03:31:26;4.83;;;1.63;;
17812;SDS011;9030;50.792;8.320;2023-10-31T03:33:53;7.60;;;1.37;;
17812;SDS011;9030;50.792;8.320;2023-10-31T03:36:20;5.20;;;1.33;;
17812;SDS011;9030;50.792;8.320;2023-10-31T03:38:47;1.93;;;0.60;;
17812;SDS011;9030;50.792;8.320;2023-10-31T03:41:13;12.30;;;1.53;;
17812;SDS011;9030;50.792;8.320;2023-10-31T03:43:40;1.70;;;1.00;;
17812;SDS011;9030;50.792;8.320;2023-10-31T03:46:07;4.90;;;0.87;;
17812;SDS011;9030;50.792;8.320;2023-10-31T03:48:36;6.17;;;1.50;;
17812;SDS011;9030;50.792;8.320;2023-10-31T03:51:03;5.97;;;1.53;;
17812;SDS011;9030;50.792;8.320;2023-10-31T03:53:29;3.70;;;0.80;;
17812;SDS011;9030;50.792;8.320;2023-10-31T03:55:58;7.47;;;1.20;;
17812;SDS011;9030;50.792;8.320;2023-10-31T03:58:25;3.30;;;1.00;;
17812;SDS011;9030;50.792;8.320;2023-10-31T04:00:51;7.10;;;1.33;;
17812;SDS011;9030;50.792;8.320;2023-10-31T04:03:18;2.43;;;0.90;;
17812;SDS011;9030;50.792;8.320;2023-10-31T04:05:46;8.43;;;1.33;;
17812;SDS011;9030;50.792;8.320;2023-10-31T04:08:12;4.20;;;1.13;;
17812;SDS011;9030;50.792;8.320;2023-10-31T04:10:39;8.07;;;1.80;;
17812;SDS011;9030;50.792;8.320;2023-10-31T04:13:06;4.70;;;1.10;;
17812;SDS011;9030;50.792;8.320;2023-10-31T04:15:32;4.17;;;1.37;;
17812;SDS011;9030;50.792;8.320;2023-10-31T04:17:59;6.90;;;1.60;;
17812;SDS011;9030;50.792;8.320;2023-10-31T04:20:26;4.23;;;1.20;;
17812;SDS011;9030;50.792;8.320;2023-10-31T04:22:54;5.40;;;1.37;;
17812;SDS011;9030;50.792;8.320;2023-10-31T04:25:21;7.73;;;1.50;;
17812;SDS011;9030;50.792;8.320;2023-10-31T04:27:47;7.27;;;1.20;;
17812;SDS011;9030;50.792;8.320;2023-10-31T04:30:14;5.17;;;1.57;;
17812;SDS011;9030;50.792;8.320;2023-10-31T04:32:41;5.60;;;1.10;;
17812;SDS011;9030;50.792;8.320;2023-10-31T04:35:08;5.77;;;1.20;;
17812;SDS011;9030;50.792;8.320;2023-10-31T04:37:34;4.37;;;1.60;;
17812;SDS011;9030;50.792;8.320;2023-10-31T04:40:03;5.93;;;1.57;;
17812;SDS011;9030;50.792;8.320;2023-10-31T04:42:31;3.93;;;1.00;;
17812;SDS011;9030;50.792;8.320;2023-10-31T04:44:59;8.23;;;1.90;;
17812;SDS011;9030;50.792;8.320;2023-10-31T04:47:25;7.07;;;1.57;;
17812;SDS011;9030;50.792;8.320;2023-10-31T04:49:52;5.47;;;1.70;;
17812;SDS011;9030;50.792;8.320;2023-10-31T04:52:19;4.07;;;1.33;;
17812;SDS011;9030;50.792;8.320;2023-10-31T04:54:47;3.03;;;1.40;;
17812;SDS011;9030;50.792;8.320;2023-10-31T04:57:15;10.63;;;1.90;;
17812;SDS011;9030;50.792;8.320;2023-10-31T04:59:42;3.77;;;1.47;;
17812;SDS011;9030;50.792;8.320;2023-10-31T05:02:09;3.10;;;1.00;;
17812;SDS011;9030;50.792;8.320;2023-10-31T05:04:37;1.67;;;0.90;;
17812;SDS011;9030;50.792;8.320;2023-10-31T05:07:05;3.60;;;1.40;;
17812;SDS011;9030;50.792;8.320;2023-10-31T05:09:32;7.10;;;1.43;;
17812;SDS011;9030;50.792;8.320;2023-10-31T05:11:58;5.53;;;1.67;;
17812;SDS011;9030;50.792;8.320;2023-10-31T05:14:26;4.97;;;1.30;;
17812;SDS011;9030;50.792;8.320;2023-10-31T05:16:53;3.97;;;1.23;;
17812;SDS011;9030;50.792;8.320;2023-10-31T05:19:19;6.20;;;1.73;;
17812;SDS011;9030;50.792;8.320;2023-10-31T05:21:46;6.50;;;1.80;;
17812;SDS011;9030;50.792;8.320;2023-10-31T05:24:13;3.20;;;0.97;;
17812;SDS011;9030;50.792;8.320;2023-10-31T05:26:39;7.47;;;1.80;;
17812;SDS011;9030;50.792;8.320;2023-10-31T05:29:07;3.23;;;1.53;;
17812;SDS011;9030;50.792;8.320;2023-10-31T05:31:35;2.37;;;0.77;;
17812;SDS011;9030;50.792;8.320;2023-10-31T05:34:01;8.33;;;1.60;;
17812;SDS011;9030;50.792;8.320;2023-10-31T05:36:29;3.13;;;1.20;;
17812;SDS011;9030;50.792;8.320;2023-10-31T05:38:56;3.03;;;1.13;;
17812;SDS011;9030;50.792;8.320;2023-10-31T05:41:23;4.27;;;1.00;;
17812;SDS011;9030;50.792;8.320;2023-10-31T05:43:50;1.90;;;1.07;;
17812;SDS011;9030;50.792;8.320;2023-10-31T05:46:17;4.17;;;1.00;;
17812;SDS011;9030;50.792;8.320;2023-10-31T05:48:45;4.10;;;1.00;;
17812;SDS011;9030;50.792;8.320;2023-10-31T05:51:14;2.87;;;1.07;;
17812;SDS011;9030;50.792;8.320;2023-10-31T05:53:41;1.80;;;0.70;;
17812;SDS011;9030;50.792;8.320;2023-10-31T05:56:10;3.87;;;1.30;;
17812;SDS011;9030;50.792;8.320;2023-10-31T05:58:38;6.70;;;1.30;;
17812;SDS011;9030;50.792;8.320;2023-10-31T06:01:05;4.93;;;0.87;;
17812;SDS011;9030;50.792;8.320;2023-10-31T06:03:32;1.87;;;0.70;;
17812;SDS011;9030;50.792;8.320;2023-10-31T06:06:01;1.40;;;0.80;;
17812;SDS011;9030;50.792;8.320;2023-10-31T06:08:28;4.43;;;1.10;;
17812;SDS011;9030;50.792;8.320;2023-10-31T06:10:55;2.67;;;1.30;;
17812;SDS011;9030;50.792;8.320;2023-10-31T06:13:22;1.63;;;0.80;;
17812;SDS011;9030;50.792;8.320;2023-10-31T06:15:50;2.87;;;0.70;;
17812;SDS011;9030;50.792;8.320;2023-10-31T06:18:17;4.93;;;1.30;;
17812;SDS011;9030;50.792;8.320;2023-10-31T06:20:44;4.57;;;0.90;;
17812;SDS011;9030;50.792;8.320;2023-10-31T06:23:12;4.07;;;1.27;;
17812;SDS011;9030;50.792;8.320;2023-10-31T06:25:38;2.90;;;0.73;;
17812;SDS011;9030;50.792;8.320;2023-10-31T06:28:05;2.80;;;0.80;;
17812;SDS011;9030;50.792;8.320;2023-10-31T06:30:32;1.90;;;1.00;;
17812;SDS011;9030;50.792;8.320;2023-10-31T06:32:58;1.50;;;0.87;;
17812;SDS011;9030;50.792;8.320;2023-10-31T06:35:24;1.07;;;0.70;;
17812;SDS011;9030;50.792;8.320;2023-10-31T06:37:51;0.60;;;0.50;;
17812;SDS011;9030;50.792;8.320;2023-10-31T06:40:22;0.93;;;0.60;;
17812;SDS011;9030;50.792;8.320;2023-10-31T06:42:49;1.40;;;0.87;;
17812;SDS011;9030;50.792;8.320;2023-10-31T06:45:15;2.07;;;0.90;;
17812;SDS011;9030;50.792;8.320;2023-10-31T06:47:42;1.93;;;0.80;;
17812;SDS011;9030;50.792;8.320;2023-10-31T06:50:09;1.80;;;0.90;;
17812;SDS011;9030;50.792;8.320;2023-10-31T06:52:36;1.43;;;0.90;;
17812;SDS011;9030;50.792;8.320;2023-10-31T06:55:02;9.47;;;1.77;;
17812;SDS011;9030;50.792;8.320;2023-10-31T06:57:31;1.43;;;0.80;;
17812;SDS011;9030;50.792;8.320;2023-10-31T06:59:57;3.30;;;0.90;;
17812;SDS011;9030;50.792;8.320;2023-10-31T07:02:24;6.90;;;1.23;;
17812;SDS011;9030;50.792;8.320;2023-10-31T07:04:51;3.13;;;1.13;;
17812;SDS011;9030;50.792;8.320;2023-10-31T07:07:18;2.80;;;1.00;;
17812;SDS011;9030;50.792;8.320;2023-10-31T07:09:45;3.23;;;1.17;;
17812;SDS011;9030;50.792;8.320;2023-10-31T07:12:11;4.13;;;1.00;;
17812;SDS011;9030;50.792;8.320;2023-10-31T07:14:39;3.77;;;1.33;;
17812;SDS011;9030;50.792;8.320;2023-10-31T07:17:06;2.27;;;1.10;;
17812;SDS011;9030;50.792;8.320;2023-10-31T07:19:33;2.40;;;1.03;;
17812;SDS011;9030;50.792;8.320;2023-10-31T07:21:59;1.20;;;1.00;;
17812;SDS011;9030;50.792;8.320;2023-10-31T07:24:26;2.37;;;0.97;;
17812;SDS011;9030;50.792;8.320;2023-10-31T07:26:53;1.33;;;0.90;;
17812;SDS011;9030;50.792;8.320;2023-10-31T07:29:20;3.97;;;1.23;;
17812;SDS011;9030;50.792;8.320;2023-10-31T07:31:48;2.73;;;1.00;;
17812;SDS011;9030;50.792;8.320;2023-10-31T07:34:14;3.57;;;0.80;;
17812;SDS011;9030;50.792;8.320;2023-10-31T07:36:41;2.50;;;0.77;;
17812;SDS011;9030;50.792;8.320;2023-10-31T07:39:08;1.77;;;0.77;;
17812;SDS011;9030;50.792;8.320;2023-10-31T07:41:37;2.70;;;0.80;;
17812;SDS011;9030;50.792;8.320;2023-10-31T07:44:04;0.90;;;0.60;;
17812;SDS011;9030;50.792;8.320;2023-10-31T07:46:31;3.03;;;1.27;;
17812;SDS011;9030;50.792;8.320;2023-10-31T07:48:59;1.90;;;1.43;;
17812;SDS011;9030;50.792;8.320;2023-10-31T07:51:25;5.43;;;0.80;;
17812;SDS011;9030;50.792;8.320;2023-10-31T07:53:52;2.93;;;1.20;;
17812;SDS011;9030;50.792;8.320;2023-10-31T07:56:19;2.80;;;1.37;;
17812;SDS011;9030;50.792;8.320;2023-10-31T07:58:48;4.37;;;1.40;;
17812;SDS011;9030;50.792;8.320;2023-10-31T08:01:14;3.23;;;1.30;;
17812;SDS011;9030;50.792;8.320;2023-10-31T08:03:42;1.87;;;1.23;;
17812;SDS011;9030;50.792;8.320;2023-10-31T08:06:10;3.80;;;1.37;;
17812;SDS011;9030;50.792;8.320;2023-10-31T08:08:37;2.63;;;1.47;;
17812;SDS011;9030;50.792;8.320;2023-10-31T08:11:06;3.27;;;1.47;;
17812;SDS011;9030;50.792;8.320;2023-10-31T08:13:33;3.50;;;1.37;;
17812;SDS011;9030;50.792;8.320;2023-10-31T08:16:00;3.03;;;1.60;;
17812;SDS011;9030;50.792;8.320;2023-10-31T08:18:27;6.47;;;1.70;;
17812;SDS011;9030;50.792;8.320;2023-10-31T08:20:53;4.83;;;1.83;;
17812;SDS011;9030;50.792;8.320;2023-10-31T08:23:21;1.77;;;1.00;;
17812;SDS011;9030;50.792;8.320;2023-10-31T08:25:48;2.70;;;1.30;;
17812;SDS011;9030;50.792;8.320;2023-10-31T08:28:15;2.60;;;1.20;;
17812;SDS011;9030;50.792;8.320;2023-10-31T08:30:42;2.97;;;1.70;;
17812;SDS011;9030;50.792;8.320;2023-10-31T08:33:09;6.23;;;1.87;;
17812;SDS011;9030;50.792;8.320;2023-10-31T08:35:36;4.10;;;1.87;;
17812;SDS011;9030;50.792;8.320;2023-10-31T08:38:02;6.07;;;2.10;;
17812;SDS011;9030;50.792;8.320;2023-10-31T08:40:30;4.23;;;1.90;;
17812;SDS011;9030;50.792;8.320;2023-10-31T08:42:57;4.50;;;2.00;;
17812;SDS011;9030;50.792;8.320;2023-10-31T08:45:25;3.23;;;2.10;;
17812;SDS011;9030;50.792;8.320;2023-10-31T08:47:52;3.90;;;2.40;;
17812;SDS011;9030;50.792;8.320;2023-10-31T08:50:19;4.87;;;2.50;;
17812;SDS011;9030;50.792;8.320;2023-10-31T08:52:45;5.40;;;3.03;;
17812;SDS011;9030;50.792;8.320;2023-10-31T08:55:12;8.20;;;3.63;;
17812;SDS011;9030;50.792;8.320;2023-10-31T08:57:40;7.13;;;5.03;;
17812;SDS011;9030;50.792;8.320;2023-10-31T09:00:07;7.20;;;3.37;;
17812;SDS011;9030;50.792;8.320;2023-10-31T09:02:34;8.10;;;2.70;;
17812;SDS011;9030;50.792;8.320;2023-10-31T09:05:01;4.67;;;2.63;;
17812;SDS011;9030;50.792;8.320;2023-10-31T09:07:28;7.50;;;3.00;;
17812;SDS011;9030;50.792;8.320;2023-10-31T09:09:54;5.67;;;2.73;;
17812;SDS011;9030;50.792;8.320;2023-10-31T09:12:21;4.80;;;2.00;;
17812;SDS011;9030;50.792;8.320;2023-10-31T09:14:49;4.00;;;2.53;;
17812;SDS011;9030;50.792;8.320;2023-10-31T09:17:15;3.97;;;2.10;;
17812;SDS011;9030;50.792;8.320;2023-10-31T09:19:42;5.53;;;2.33;;
17812;SDS011;9030;50.792;8.320;2023-10-31T09:22:09;4.47;;;2.13;;
17812;SDS011;9030;50.792;8.320;2023-10-31T09:24:35;2.97;;;1.80;;
17812;SDS011;9030;50.792;8.320;2023-10-31T09:27:02;6.00;;;2.13;;
17812;SDS011;9030;50.792;8.320;2023-10-31T09:29:29;5.97;;;2.03;;
17812;SDS011;9030;50.792;8.320;2023-10-31T09:31:57;4.93;;;1.87;;
17812;SDS011;9030;50.792;8.320;2023-10-31T09:34:24;3.17;;;2.10;;
17812;SDS011;9030;50.792;8.320;2023-10-31T09:36:51;6.43;;;2.47;;
17812;SDS011;9030;50.792;8.320;2023-10-31T09:39:17;5.93;;;2.40;;
17812;SDS011;9030;50.792;8.320;2023-10-31T09:41:44;9.33;;;2.47;;
17812;SDS011;9030;50.792;8.320;2023-10-31T09:44:11;4.87;;;2.40;;
17812;SDS011;9030;50.792;8.320;2023-10-31T09:46:38;6.60;;;2.27;;
17812;SDS011;9030;50.792;8.320;2023-10-31T09:49:07;7.43;;;2.83;;
17812;SDS011;9030;50.792;8.320;2023-10-31T09:51:35;7.43;;;3.07;;
17812;SDS011;9030;50.792;8.320;2023-10-31T09:54:03;8.53;;;4.30;;
17812;SDS011;9030;50.792;8.320;2023-10-31T09:56:31;12.17;;;4.20;;
17812;SDS011;9030;50.792;8.320;2023-10-31T09:58:59;7.07;;;2.50;;
17812;SDS011;9030;50.792;8.320;2023-10-31T10:01:26;10.87;;;6.10;;
17812;SDS011;9030;50.792;8.320;2023-10-31T10:03:53;13.37;;;2.40;;
17812;SDS011;9030;50.792;8.320;2023-10-31T10:06:21;7.47;;;2.57;;
17812;SDS011;9030;50.792;8.320;2023-10-31T10:08:49;6.40;;;2.10;;
17812;SDS011;9030;50.792;8.320;2023-10-31T10:11:16;9.77;;;2.30;;
17812;SDS011;9030;50.792;8.320;2023-10-31T10:13:43;9.33;;;2.10;;
17812;SDS011;9030;50.792;8.320;2023-10-31T10:16:10;3.40;;;1.77;;
17812;SDS011;9030;50.792;8.320;2023-10-31T10:18:36;8.90;;;2.63;;
17812;SDS011;9030;50.792;8.320;2023-10-31T10:21:04;3.97;;;1.73;;
17812;SDS011;9030;50.792;8.320;2023-10-31T10:23:34;5.77;;;2.20;;
17812;SDS011;9030;50.792;8.320;2023-10-31T10:26:01;6.40;;;2.40;;
17812;SDS011;9030;50.792;8.320;2023-10-31T10:28:28;5.30;;;1.93;;
17812;SDS011;9030;50.792;8.320;2023-10-31T10:30:55;7.00;;;1.60;;
17812;SDS011;9030;50.792;8.320;2023-10-31T10:33:22;8.90;;;2.47;;
17812;SDS011;9030;50.792;8.320;2023-10-31T10:35:48;11.23;;;3.77;;
17812;SDS011;9030;50.792;8.320;2023-10-31T10:38:15;7.23;;;3.17;;
17812;SDS011;9030;50.792;8.320;2023-10-31T10:40:45;4.80;;;2.20;;
17812;SDS011;9030;50.792;8.320;2023-10-31T10:43:14;4.77;;;1.80;;
17812;SDS011;9030;50.792;8.320;2023-10-31T10:45:46;5.80;;;2.07;;
17812;SDS011;9030;50.792;8.320;2023-10-31T10:48:20;5.77;;;1.90;;
17812;SDS011;9030;50.792;8.320;2023-10-31T10:50:51;4.93;;;1.47;;
17812;SDS011;9030;50.792;8.320;2023-10-31T10:53:23;6.03;;;1.80;;
17812;SDS011;9030;50.792;8.320;2023-10-31T10:55:55;4.60;;;1.47;;
17812;SDS011;9030;50.792;8.320;2023-10-31T10:58:26;6.03;;;1.63;;
17812;SDS011;9030;50.792;8.320;2023-10-31T11:00:58;5.00;;;1.20;;
17812;SDS011;9030;50.792;8.320;2023-10-31T11:03:25;5.57;;;2.00;;
17812;SDS011;9030;50.792;8.320;2023-10-31T11:05:53;4.50;;;2.07;;
17812;SDS011;9030;50.792;8.320;2023-10-31T11:08:20;6.17;;;2.87;;
17812;SDS011;9030;50.792;8.320;2023-10-31T11:10:49;7.70;;;1.70;;
17812;SDS011;9030;50.792;8.320;2023-10-31T11:13:17;4.90;;;1.60;;
17812;SDS011;9030;50.792;8.320;2023-10-31T11:15:44;3.70;;;1.30;;
17812;SDS011;9030;50.792;8.320;2023-10-31T11:18:12;6.43;;;1.23;;
17812;SDS011;9030;50.792;8.320;2023-10-31T11:20:39;2.33;;;1.13;;
17812;SDS011;9030;50.792;8.320;2023-10-31T11:23:06;4.25;;;1.00;;
17812;SDS011;9030;50.792;8.320;2023-10-31T11:25:33;3.90;;;0.95;;
17812;SDS011;9030;50.792;8.320;2023-10-31T11:28:11;4.57;;;0.88;;
17812;SDS011;9030;50.792;8.320;2023-10-31T11:30:41;3.27;;;1.00;;
17812;SDS011;9030;50.792;8.320;2023-10-31T11:33:11;3.35;;;1.20;;
17812;SDS011;9030;50.792;8.320;2023-10-31T11:35:38;3.37;;;1.33;;
17812;SDS011;9030;50.792;8.320;2023-10-31T11:38:06;3.30;;;1.20;;
17812;SDS011;9030;50.792;8.320;2023-10-31T11:40:33;6.67;;;1.33;;
17812;SDS011;9030;50.792;8.320;2023-10-31T11:43:02;7.43;;;1.60;;
17812;SDS011;9030;50.792;8.320;2023-10-31T11:45:32;5.43;;;1.25;;
17812;SDS011;9030;50.792;8.320;2023-10-31T11:48:02;3.33;;;1.23;;
17812;SDS011;9030;50.792;8.320;2023-10-31T11:50:29;7.15;;;1.40;;
17812;SDS011;9030;50.792;8.320;2023-10-31T11:53:00;6.85;;;1.67;;
17812;SDS011;9030;50.792;8.320;2023-10-31T11:55:29;2.80;;;1.00;;
17812;SDS011;9030;50.792;8.320;2023-10-31T11:57:58;4.05;;;1.73;;
17812;SDS011;9030;50.792;8.320;2023-10-31T12:00:25;3.33;;;1.00;;
17812;SDS011;9030;50.792;8.320;2023-10-31T12:02:58;3.15;;;1.00;;
17812;SDS011;9030;50.792;8.320;2023-10-31T12:05:27;4.80;;;1.02;;
17812;SDS011;9030;50.792;8.320;2023-10-31T12:07:54;7.05;;;0.98;;
17812;SDS011;9030;50.792;8.320;2023-10-31T12:10:22;5.32;;;1.83;;
17812;SDS011;9030;50.792;8.320;2023-10-31T12:12:50;3.33;;;0.90;;
17812;SDS011;9030;50.792;8.320;2023-10-31T12:15:17;10.70;;;1.35;;
17812;SDS011;9030;50.792;8.320;2023-10-31T12:17:43;6.32;;;1.10;;
17812;SDS011;9030;50.792;8.320;2023-10-31T12:20:10;6.68;;;1.55;;
17812;SDS011;9030;50.792;8.320;2023-10-31T12:22:39;4.60;;;0.98;;
17812;SDS011;9030;50.792;8.320;2023-10-31T12:25:06;7.20;;;1.60;;
17812;SDS011;9030;50.792;8.320;2023-10-31T12:27:44;2.60;;;0.98;;
17812;SDS011;9030;50.792;8.320;2023-10-31T12:30:11;6.55;;;1.13;;
17812;SDS011;9030;50.792;8.320;2023-10-31T12:32:39;2.90;;;0.93;;
17812;SDS011;9030;50.792;8.320;2023-10-31T12:35:07;2.60;;;1.00;;
17812;SDS011;9030;50.792;8.320;2023-10-31T12:37:41;3.58;;;1.00;;
17812;SDS011;9030;50.792;8.320;2023-10-31T12:40:10;5.65;;;1.58;;
17812;SDS011;9030;50.792;8.320;2023-10-31T12:42:38;5.65;;;0.90;;
17812;SDS011;9030;50.792;8.320;2023-10-31T12:45:05;5.32;;;1.45;;
17812;SDS011;9030;50.792;8.320;2023-10-31T12:47:34;1.92;;;0.70;;
17812;SDS011;9030;50.792;8.320;2023-10-31T12:50:05;5.13;;;0.90;;
17812;SDS011;9030;50.792;8.320;2023-10-31T12:52:49;5.63;;;1.33;;
17812;SDS011;9030;50.792;8.320;2023-10-31T12:55:17;3.28;;;1.00;;
17812;SDS011;9030;50.792;8.320;2023-10-31T12:57:45;5.03;;;1.40;;
17812;SDS011;9030;50.792;8.320;2023-10-31T13:00:12;3.10;;;0.80;;
17812;SDS011;9030;50.792;8.320;2023-10-31T13:02:41;4.43;;;0.88;;
17812;SDS011;9030;50.792;8.320;2023-10-31T13:05:09;4.43;;;1.23;;
17812;SDS011;9030;50.792;8.320;2023-10-31T13:07:41;4.93;;;0.90;;
17812;SDS011;9030;50.792;8.320;2023-10-31T13:10:16;3.60;;;1.10;;
17812;SDS011;9030;50.792;8.320;2023-10-31T13:12:43;1.75;;;0.75;;
17812;SDS011;9030;50.792;8.320;2023-10-31T13:15:11;2.75;;;1.00;;
17812;SDS011;9030;50.792;8.320;2023-10-31T13:17:38;3.83;;;1.30;;
17812;SDS011;9030;50.792;8.320;2023-10-31T13:20:07;3.65;;;1.17;;
17812;SDS011;9030;50.792;8.320;2023-10-31T13:22:35;2.67;;;0.80;;
17812;SDS011;9030;50.792;8.320;2023-10-31T13:25:03;5.63;;;1.00;;
17812;SDS011;9030;50.792;8.320;2023-10-31T13:27:32;4.22;;;1.00;;
17812;SDS011;9030;50.792;8.320;2023-10-31T13:30:00;3.15;;;0.80;;
17812;SDS011;9030;50.792;8.320;2023-10-31T13:32:27;6.40;;;2.97;;
17812;SDS011;9030;50.792;8.320;2023-10-31T13:34:53;5.43;;;1.35;;
17812;SDS011;9030;50.792;8.320;2023-10-31T13:37:20;3.47;;;0.85;;
17812;SDS011;9030;50.792;8.320;2023-10-31T13:39:46;3.13;;;1.05;;
17812;SDS011;9030;50.792;8.320;2023-10-31T13:42:15;5.72;;;0.82;;
17812;SDS011;9030;50.792;8.320;2023-10-31T13:44:41;2.78;;;0.73;;
17812;SDS011;9030;50.792;8.320;2023-10-31T13:47:08;4.70;;;1.00;;
17812;SDS011;9030;50.792;8.320;2023-10-31T13:49:35;2.92;;;0.70;;
17812;SDS011;9030;50.792;8.320;2023-10-31T13:52:03;4.05;;;0.70;;
17812;SDS011;9030;50.792;8.320;2023-10-31T13:54:30;1.55;;;0.60;;
17812;SDS011;9030;50.792;8.320;2023-10-31T13:56:56;3.03;;;0.85;;
17812;SDS011;9030;50.792;8.320;2023-10-31T13:59:24;3.47;;;0.85;;
17812;SDS011;9030;50.792;8.320;2023-10-31T14:01:51;6.68;;;1.20;;
17812;SDS011;9030;50.792;8.320;2023-10-31T14:04:18;1.60;;;0.75;;
17812;SDS011;9030;50.792;8.320;2023-10-31T14:06:45;3.80;;;1.10;;
17812;SDS011;9030;50.792;8.320;2023-10-31T14:09:13;4.30;;;1.00;;
17812;SDS011;9030;50.792;8.320;2023-10-31T14:11:40;2.47;;;1.05;;
17812;SDS011;9030;50.792;8.320;2023-10-31T14:14:07;3.72;;;0.93;;
17812;SDS011;9030;50.792;8.320;2023-10-31T14:16:36;2.65;;;1.02;;
17812;SDS011;9030;50.792;8.320;2023-10-31T14:19:03;3.47;;;0.95;;
17812;SDS011;9030;50.792;8.320;2023-10-31T14:21:32;6.93;;;1.10;;
17812;SDS011;9030;50.792;8.320;2023-10-31T14:23:59;5.03;;;1.23;;
17812;SDS011;9030;50.792;8.320;2023-10-31T14:26:25;4.10;;;1.08;;
17812;SDS011;9030;50.792;8.320;2023-10-31T14:28:52;5.00;;;1.33;;
17812;SDS011;9030;50.792;8.320;2023-10-31T14:31:19;6.57;;;1.70;;
17812;SDS011;9030;50.792;8.320;2023-10-31T14:33:48;5.90;;;2.35;;
17812;SDS011;9030;50.792;8.320;2023-10-31T14:36:15;3.05;;;1.40;;
17812;SDS011;9030;50.792;8.320;2023-10-31T14:38:41;3.13;;;1.40;;
17812;SDS011;9030;50.792;8.320;2023-10-31T14:41:08;7.07;;;1.70;;
17812;SDS011;9030;50.792;8.320;2023-10-31T14:43:35;4.60;;;1.13;;
17812;SDS011;9030;50.792;8.320;2023-10-31T14:46:03;4.68;;;1.23;;
17812;SDS011;9030;50.792;8.320;2023-10-31T14:48:32;5.22;;;1.80;;
17812;SDS011;9030;50.792;8.320;2023-10-31T14:51:00;2.17;;;1.02;;
17812;SDS011;9030;50.792;8.320;2023-10-31T14:53:27;5.35;;;1.33;;
17812;SDS011;9030;50.792;8.320;2023-10-31T14:55:54;4.35;;;1.80;;
17812;SDS011;9030;50.792;8.320;2023-10-31T14:58:21;4.50;;;1.60;;
17812;SDS011;9030;50.792;8.320;2023-10-31T15:00:48;6.20;;;1.27;;